Le Roy, KS (66857)

8:31 AM CST on November 23, 2014 (GMT -0600)
KS | Change Station
CLOSE
Current Station
Personal Weather Station
Location: Burlington, KS
Elevation: 1050 ft
Nearby Weather Stations

Elev 1050 ft 38.19 °N, 95.74 °W | Updated 8 seconds ago

Overcast
Overcast
57.6 °F
Feels Like 57.6 °F
N
5.4
Wind Variable Wind from SSW
Gusts 8.7 mph

Today
High -- | Low -- °F
--% Chance of Precip.
Yesterday
High -- | Low -- °F
Precip. -- in
7:11 AM 5:05 PM
New Moon, 1% visible
Pressure 29.48 in
Visibility 9.0 miles
Clouds Overcast 1100 ft
Dew Point 51 °F
Humidity 79%
Rainfall 0.00 in
Snow Depth Not available.
UV 0 out of 12
Pollen .10 out of 12
Air Quality Not available.
Flu Activity Not available.
METAR KCNU 231352Z AUTO 17011KT 9SM OVC011 14/13 A2949 RMK AO2 CIG 008V015 SLP982 T01390128

More Conditions Fewer Conditions

Pressure 29.48 in
Visibility 9.0 miles
Clouds Overcast 1100 ft
Dew Point 51 °F
Humidity 79%
Rainfall 0.00 in
Snow Depth Not available.
UV 0 out of 12
Pollen .10 out of 12
Air Quality Not available.
Flu Activity Not available.
METAR KCNU 231352Z AUTO 17011KT 9SM OVC011 14/13 A2949 RMK AO2 CIG 008V015 SLP982 T01390128

More Conditions Fewer Conditions

10-Day Weather Forecast

Almanac

Astronomy

Nov. 23, 2014 Rise Set
Actual Time
Civil Twilight
Nautical Twilight
Astronomical Twilight
Moon
Length of Visible Light
Length of Day
Tomorrow will be .
, % of the Moon is Illuminated

Today's Extremes

State Highs State Lows

Community

WunderPhotos

Upload Photos

1,773,077 photos uploaded!

WunderBlogs® & News

Nearby

Air Quality

  Air Quality AQ Index Pollutant
Not available.

Snow Depth

Station Depth Elevation

Earthquake Activity

City Distance Mag. Time & Date
Minimum magnitude displayed is 2.5.

Coastal Water Temperatures

Place Temperature

Nearby Weather Stations